createdAt,value
2022-08-17T00:03:29.695Z,3.26
2022-08-17T00:08:35.658Z,3.40
2022-08-17T00:13:41.942Z,6.19
2022-08-17T00:18:53.754Z,3.46
2022-08-17T00:23:54.180Z,3.85
2022-08-17T00:29:00.541Z,3.68
2022-08-17T00:34:06.857Z,3.45
2022-08-17T00:39:13.175Z,3.91
2022-08-17T00:44:19.498Z,3.19
2022-08-17T00:49:25.810Z,3.89
2022-08-17T00:54:32.066Z,7.12
2022-08-17T00:59:38.326Z,3.43
2022-08-17T01:04:44.629Z,3.38
2022-08-17T01:09:51.163Z,4.32
2022-08-17T01:14:57.487Z,6.34
2022-08-17T01:20:03.735Z,3.58
2022-08-17T01:25:10.002Z,6.23
2022-08-17T01:30:58.639Z,7.01
2022-08-17T01:35:22.038Z,3.57
2022-08-17T01:40:28.285Z,3.57
2022-08-17T01:45:34.628Z,3.60
2022-08-17T01:50:41.177Z,6.53
2022-08-17T01:55:47.503Z,3.89
2022-08-17T02:00:59.964Z,8.31
2022-08-17T02:05:59.651Z,4.01
2022-08-17T02:11:06.082Z,3.52
2022-08-17T02:16:12.012Z,3.43
2022-08-17T02:21:18.303Z,3.47
2022-08-17T02:26:26.068Z,3.80
2022-08-17T02:31:30.441Z,4.05
2022-08-17T02:36:36.749Z,4.04
2022-08-17T02:41:42.997Z,7.16
2022-08-17T02:46:49.372Z,3.57
2022-08-17T02:51:55.705Z,3.29
2022-08-17T02:57:01.932Z,5.49
2022-08-17T03:02:08.386Z,3.40
2022-08-17T03:07:15.634Z,3.46
2022-08-17T03:12:22.076Z,3.77
2022-08-17T03:17:28.339Z,6.28
2022-08-17T03:22:36.694Z,3.95
2022-08-17T03:27:42.145Z,3.70
2022-08-17T03:32:46.373Z,4.02
2022-08-17T03:38:00.070Z,3.69
2022-08-17T03:42:58.569Z,3.01
2022-08-17T03:48:10.248Z,3.09
2022-08-17T03:53:27.249Z,4.15
2022-08-17T03:58:18.242Z,3.68
2022-08-17T04:03:19.353Z,4.15
2022-08-17T04:08:39.766Z,3.19
2022-08-17T04:13:26.627Z,3.68
2022-08-17T04:18:52.903Z,3.68
2022-08-17T04:23:44.979Z,2.98
2022-08-17T04:28:45.388Z,3.11
2022-08-17T04:38:51.229Z,3.25
2022-08-17T04:43:57.471Z,3.04
2022-08-17T04:49:03.783Z,2.87
2022-08-17T04:54:10.084Z,3.72
2022-08-17T04:59:16.317Z,3.83
2022-08-17T05:04:34.539Z,3.21
2022-08-17T05:09:29.337Z,3.03
2022-08-17T05:14:35.580Z,3.65
2022-08-17T05:19:41.935Z,4.66
2022-08-17T05:24:55.519Z,3.50
2022-08-17T05:29:54.052Z,2.91
2022-08-17T05:35:00.505Z,3.21
2022-08-17T05:40:06.687Z,3.73
2022-08-17T05:45:12.893Z,3.72
2022-08-17T05:50:22.106Z,3.16
2022-08-17T05:55:25.271Z,3.63
2022-08-17T06:00:31.694Z,3.00
2022-08-17T06:05:37.854Z,3.19
2022-08-17T06:10:45.194Z,3.11
2022-08-17T06:15:51.517Z,2.63
2022-08-17T06:20:58.849Z,4.57
2022-08-17T06:26:06.137Z,3.06
2022-08-17T06:31:12.576Z,3.29
2022-08-17T06:36:18.896Z,3.29
2022-08-17T06:41:25.197Z,2.35
2022-08-17T06:46:31.508Z,2.83
2022-08-17T06:51:37.819Z,3.78
2022-08-17T06:56:53.495Z,3.21
2022-08-17T07:01:51.008Z,3.21
2022-08-17T07:06:57.382Z,2.58
2022-08-17T07:12:03.618Z,3.55
2022-08-17T07:17:09.932Z,2.82
2022-08-17T07:22:16.215Z,2.69
2022-08-17T07:27:22.581Z,2.77
2022-08-17T07:32:28.865Z,2.36
2022-08-17T07:37:35.077Z,3.43
2022-08-17T07:42:46.567Z,3.50
2022-08-17T07:47:47.183Z,4.31
2022-08-17T07:52:53.482Z,2.94
2022-08-17T07:57:59.709Z,2.30
2022-08-17T08:03:05.996Z,3.69
2022-08-17T08:08:12.427Z,3.22
2022-08-17T08:13:18.334Z,2.40
2022-08-17T08:18:53.911Z,3.37
2022-08-17T08:23:31.740Z,3.64
2022-08-17T08:28:38.058Z,5.09
2022-08-17T08:33:44.460Z,2.41
2022-08-17T08:38:53.711Z,4.01
2022-08-17T08:44:00.019Z,3.64
2022-08-17T08:49:12.249Z,3.13
2022-08-17T08:54:14.036Z,3.24
2022-08-17T08:59:21.560Z,4.22
2022-08-17T09:04:27.945Z,3.16
2022-08-17T09:09:34.246Z,3.46
2022-08-17T09:14:45.256Z,3.35
2022-08-17T09:19:46.637Z,3.84
2022-08-17T09:24:52.990Z,4.48
2022-08-17T09:29:59.292Z,5.21
2022-08-17T09:35:05.790Z,5.03
2022-08-17T09:40:13.893Z,4.56
2022-08-17T09:45:20.280Z,5.23
2022-08-17T09:51:03.486Z,5.32
2022-08-17T09:55:32.617Z,5.74
2022-08-17T10:00:38.824Z,4.72
2022-08-17T10:05:45.163Z,5.72
2022-08-17T10:10:52.450Z,5.03
2022-08-17T10:15:57.390Z,4.72
2022-08-17T10:21:04.681Z,5.13
2022-08-17T10:26:11.061Z,5.91
2022-08-17T10:31:34.416Z,5.70
2022-08-17T10:36:24.417Z,5.48
2022-08-17T10:41:30.703Z,5.76
2022-08-17T10:46:36.999Z,5.93
2022-08-17T10:51:43.217Z,5.86
2022-08-17T10:56:49.614Z,6.13
2022-08-17T11:01:55.909Z,5.77
2022-08-17T11:07:03.313Z,6.11
2022-08-17T11:12:08.669Z,5.95
2022-08-17T11:17:14.965Z,6.24
2022-08-17T11:22:21.420Z,6.30
2022-08-17T11:27:27.833Z,6.59
2022-08-17T11:32:35.480Z,6.41
2022-08-17T11:37:42.626Z,6.08
2022-08-17T11:42:49.015Z,6.73
2022-08-17T11:48:23.798Z,6.36
2022-08-17T11:53:03.002Z,7.90
2022-08-17T11:58:09.506Z,6.75
2022-08-17T12:03:20.255Z,6.85
2022-08-17T12:08:16.476Z,12.51
2022-08-17T12:13:22.851Z,6.79
2022-08-17T12:18:30.215Z,7.17
2022-08-17T12:23:36.747Z,6.66
2022-08-17T12:28:43.148Z,7.18
2022-08-17T12:33:50.854Z,7.23
2022-08-17T12:38:57.375Z,6.30
2022-08-17T12:44:03.288Z,7.59
2022-08-17T12:49:10.708Z,7.65
2022-08-17T12:54:17.120Z,6.29
2022-08-17T12:59:30.083Z,7.30
2022-08-17T13:04:32.161Z,6.86
2022-08-17T13:09:40.260Z,7.85
2022-08-17T13:14:45.676Z,7.73
2022-08-17T13:19:53.292Z,7.18
2022-08-17T13:24:59.738Z,7.62
2022-08-17T13:30:06.211Z,6.68
2022-08-17T13:35:28.275Z,7.64
2022-08-17T13:40:20.325Z,7.49
2022-08-17T13:45:35.695Z,7.34
2022-08-17T13:50:33.804Z,8.17
2022-08-17T13:55:40.208Z,7.91
2022-08-17T14:00:50.694Z,7.84
2022-08-17T14:05:47.873Z,7.79
2022-08-17T14:10:54.452Z,7.13
2022-08-17T14:16:01.045Z,8.09
2022-08-17T14:21:07.425Z,7.44
2022-08-17T14:26:13.981Z,7.45
2022-08-17T14:31:22.134Z,7.06
2022-08-17T14:36:27.131Z,6.79
2022-08-17T14:41:38.064Z,6.09
2022-08-17T14:46:34.538Z,6.66
2022-08-17T14:51:43.853Z,6.77
2022-08-17T14:56:46.642Z,6.00
2022-08-17T15:01:52.599Z,7.08
2022-08-17T15:07:00.122Z,6.41
2022-08-17T15:12:10.667Z,6.49
2022-08-17T15:17:16.202Z,6.60
2022-08-17T15:22:22.772Z,6.53
2022-08-17T15:27:32.603Z,6.27
2022-08-17T15:32:35.637Z,6.12
2022-08-17T15:37:44.427Z,5.94
2022-08-17T15:42:50.785Z,6.33
2022-08-17T15:48:01.364Z,6.26
2022-08-17T15:53:06.764Z,5.85
2022-08-17T15:58:13.056Z,5.32
2022-08-17T16:03:58.422Z,6.00
2022-08-17T16:08:25.290Z,5.46
2022-08-17T16:13:31.535Z,5.57
2022-08-17T16:18:38.019Z,6.02
2022-08-17T16:23:44.250Z,5.69
2022-08-17T16:28:50.529Z,6.02
2022-08-17T16:34:16.381Z,5.44
2022-08-17T16:39:06.505Z,5.28
2022-08-17T16:44:15.499Z,6.59
2022-08-17T16:49:35.921Z,6.70
2022-08-17T16:54:24.624Z,5.64
2022-08-17T16:59:40.936Z,5.38
2022-08-17T17:04:36.789Z,5.61
2022-08-17T17:09:48.206Z,5.94
2022-08-17T17:14:44.201Z,6.10
2022-08-17T17:19:50.710Z,6.26
2022-08-17T17:24:57.020Z,5.67
2022-08-17T17:30:03.333Z,5.68
2022-08-17T17:35:09.619Z,5.91
2022-08-17T17:40:15.932Z,5.80
2022-08-17T17:45:22.277Z,6.04
2022-08-17T17:50:28.637Z,5.92
2022-08-17T17:55:36.040Z,5.40
2022-08-17T18:00:42.031Z,6.21
2022-08-17T18:05:48.318Z,5.61
2022-08-17T18:10:56.077Z,5.60
2022-08-17T18:16:01.824Z,5.73
2022-08-17T18:21:08.140Z,5.63
2022-08-17T18:26:14.486Z,5.78
2022-08-17T18:31:20.245Z,5.83
2022-08-17T18:36:26.484Z,5.75
2022-08-17T18:41:32.776Z,5.21
2022-08-17T18:46:39.025Z,5.63
2022-08-17T18:51:45.325Z,5.51
2022-08-17T18:56:51.623Z,5.50
2022-08-17T19:01:59.959Z,5.58
2022-08-17T19:07:03.721Z,5.91
2022-08-17T19:12:10.034Z,5.86
2022-08-17T19:17:16.347Z,5.79
2022-08-17T19:22:28.936Z,6.33
2022-08-17T19:27:34.689Z,5.66
2022-08-17T19:32:35.391Z,5.44
2022-08-17T19:37:41.630Z,5.56
2022-08-17T19:42:47.887Z,5.57
2022-08-17T19:47:56.473Z,5.77
2022-08-17T19:53:00.159Z,5.91
2022-08-17T19:58:06.588Z,5.84
2022-08-17T20:03:16.643Z,5.82
2022-08-17T20:08:18.645Z,6.12
2022-08-17T20:13:32.836Z,6.04
2022-08-17T20:18:30.859Z,6.19
2022-08-17T20:23:37.126Z,6.81
2022-08-17T20:28:44.611Z,6.35
2022-08-17T20:33:50.914Z,6.44
2022-08-17T20:38:57.482Z,6.69
2022-08-17T20:44:05.078Z,6.48
2022-08-17T20:49:14.645Z,6.47
2022-08-17T20:54:17.553Z,6.69
2022-08-17T20:59:24.155Z,6.77
2022-08-17T21:04:31.600Z,7.69
2022-08-17T21:09:37.922Z,8.41
2022-08-17T21:14:44.423Z,8.18
2022-08-17T21:20:09.731Z,8.01
2022-08-17T21:24:56.571Z,7.10
2022-08-17T21:30:05.157Z,8.87
2022-08-17T21:35:09.071Z,8.28
2022-08-17T21:40:15.517Z,8.05
2022-08-17T21:45:21.776Z,7.80
2022-08-17T21:50:28.238Z,7.56
2022-08-17T21:55:35.171Z,8.75
2022-08-17T22:00:41.688Z,8.09
2022-08-17T22:05:47.979Z,7.16
2022-08-17T22:10:54.262Z,13.18
2022-08-17T22:16:01.916Z,6.67
2022-08-17T22:21:08.239Z,6.87
2022-08-17T22:26:14.705Z,7.06
2022-08-17T22:31:21.034Z,6.84
2022-08-17T22:36:29.111Z,7.25
2022-08-17T22:41:33.474Z,7.36
2022-08-17T22:46:39.967Z,7.27
2022-08-17T22:51:46.438Z,7.13
2022-08-17T22:56:52.782Z,7.12
2022-08-17T23:01:59.210Z,7.56
2022-08-17T23:07:05.728Z,7.53
2022-08-17T23:12:13.247Z,7.44
2022-08-17T23:17:19.631Z,7.56
2022-08-17T23:22:26.168Z,7.29
2022-08-17T23:27:33.584Z,7.25
2022-08-17T23:32:44.299Z,7.26
2022-08-17T23:37:46.936Z,7.72
2022-08-17T23:42:53.095Z,7.94
2022-08-17T23:47:59.010Z,8.25
2022-08-17T23:53:05.519Z,8.38
2022-08-17T23:58:11.857Z,8.45
